Time,TemperatureF,DewpointF,PressureIn,WindDirection,WindDirectionDegrees,WindSpeedMPH,WindSpeedGustMPH,Humidity,HourlyPrecipIn,Conditions,Clouds,dailyrainin,SoftwareType,DateUTC
2013-06-09 00:03:00,61.0,60.0,30.08,SE,133,0.0,0.0,97,0.00,,,0.02,,2013-06-09 04:03:00,
2013-06-09 00:12:00,61.0,60.0,30.08,SE,133,0.0,0.0,97,0.00,,,0.02,,2013-06-09 04:12:00,
2013-06-09 00:23:00,60.0,59.0,30.08,SE,133,0.0,0.0,98,0.00,,,0.02,,2013-06-09 04:23:00,
2013-06-09 00:33:00,60.0,59.0,30.08,SE,133,0.0,0.0,98,0.00,,,0.01,,2013-06-09 04:33:00,
2013-06-09 00:43:00,60.0,59.0,30.08,SE,133,0.0,0.0,98,0.00,,,0.01,,2013-06-09 04:43:00,
2013-06-09 00:53:00,60.0,59.0,30.08,SE,133,0.0,0.0,98,0.00,,,0.01,,2013-06-09 04:53:00,
2013-06-09 01:02:00,60.0,59.0,30.08,SE,133,0.0,0.0,98,0.00,,,0.01,,2013-06-09 05:02:00,
2013-06-09 01:12:00,60.0,59.0,30.08,SE,133,0.0,0.0,98,0.00,,,0.01,,2013-06-09 05:12:00,
2013-06-09 01:22:00,60.0,59.0,30.08,SE,133,0.0,0.0,98,0.00,,,0.01,,2013-06-09 05:22:00,
2013-06-09 01:32:00,59.0,58.0,30.09,SE,133,0.0,0.0,98,0.00,,,0.01,,2013-06-09 05:32:00,
2013-06-09 01:42:00,59.0,58.0,30.09,SE,133,0.0,0.0,98,0.00,,,0.01,,2013-06-09 05:42:00,
2013-06-09 01:52:00,59.0,58.0,30.09,SE,133,0.0,0.0,98,0.00,,,0.01,,2013-06-09 05:52:00,
2013-06-09 02:02:00,59.0,58.0,30.09,SE,133,0.0,0.0,98,0.00,,,0.01,,2013-06-09 06:02:00,
2013-06-09 02:12:00,59.0,58.0,30.09,SE,133,0.0,0.0,98,0.00,,,0.01,,2013-06-09 06:12:00,
2013-06-09 02:22:00,59.0,58.0,30.10,SE,133,0.0,0.0,98,0.00,,,0.01,,2013-06-09 06:22:00,
2013-06-09 02:32:00,58.0,57.0,30.10,SE,133,0.0,0.0,98,0.00,,,0.01,,2013-06-09 06:32:00,
2013-06-09 02:42:00,58.0,58.0,30.10,SE,133,0.0,0.0,99,0.00,,,0.01,,2013-06-09 06:42:00,
2013-06-09 02:52:00,58.0,58.0,30.10,SE,133,0.0,0.0,99,0.00,,,0.01,,2013-06-09 06:52:00,
2013-06-09 03:02:00,58.0,58.0,30.10,SE,133,0.0,0.0,99,0.00,,,0.01,,2013-06-09 07:02:00,
2013-06-09 03:12:00,58.0,58.0,30.10,SE,133,0.0,0.0,99,0.00,,,0.01,,2013-06-09 07:12:00,
2013-06-09 03:22:00,58.0,58.0,30.10,SE,133,0.0,0.0,99,0.00,,,0.01,,2013-06-09 07:22:00,
2013-06-09 03:32:00,57.0,57.0,30.10,SE,133,0.0,0.0,99,0.00,,,0.01,,2013-06-09 07:32:00,
2013-06-09 03:42:00,57.0,57.0,30.10,SE,133,0.0,0.0,99,0.00,,,0.01,,2013-06-09 07:42:00,
2013-06-09 03:52:00,57.0,57.0,30.10,SE,133,0.0,0.0,99,0.00,,,0.01,,2013-06-09 07:52:00,
2013-06-09 04:02:00,57.0,57.0,30.10,SE,133,0.0,0.0,99,0.00,,,0.01,,2013-06-09 08:02:00,
2013-06-09 04:12:00,57.0,57.0,30.10,SE,133,0.0,0.0,99,0.00,,,0.01,,2013-06-09 08:12:00,
2013-06-09 04:22:00,56.0,56.0,30.11,SE,133,0.0,0.0,99,0.00,,,0.01,,2013-06-09 08:22:00,
2013-06-09 04:32:00,56.0,56.0,30.11,SE,133,0.0,0.0,99,0.00,,,0.01,,2013-06-09 08:32:00,
2013-06-09 04:42:00,56.0,56.0,30.11,SE,133,0.0,0.0,99,0.00,,,0.01,,2013-06-09 08:42:00,
2013-06-09 04:53:00,56.0,56.0,30.11,SE,133,0.0,0.0,99,0.00,,,0.01,,2013-06-09 08:53:00,
2013-06-09 05:02:00,56.0,56.0,30.12,SE,133,0.0,0.0,99,0.00,,,0.01,,2013-06-09 09:02:00,
2013-06-09 05:12:00,56.0,56.0,30.12,SE,133,0.0,0.0,99,0.00,,,0.01,,2013-06-09 09:12:00,
2013-06-09 05:22:00,55.0,55.0,30.13,SE,133,0.0,0.0,99,0.00,,,0.01,,2013-06-09 09:22:00,
2013-06-09 05:33:00,55.0,55.0,30.13,SE,133,0.0,0.0,99,0.00,,,0.01,,2013-06-09 09:33:00,
2013-06-09 05:43:00,55.0,55.0,30.13,SE,133,0.0,0.0,99,0.00,,,0.01,,2013-06-09 09:43:00,
2013-06-09 05:52:00,55.0,55.0,30.13,SE,133,0.0,0.0,99,0.00,,,0.01,,2013-06-09 09:52:00,
2013-06-09 06:03:00,55.0,55.0,30.14,SE,133,0.0,0.0,99,0.00,,,0.01,,2013-06-09 10:03:00,
2013-06-09 06:12:00,55.0,55.0,30.14,SE,133,0.0,0.0,99,0.00,,,0.01,,2013-06-09 10:12:00,
2013-06-09 06:23:00,55.0,55.0,30.14,SE,133,0.0,0.0,99,0.00,,,0.01,,2013-06-09 10:23:00,
2013-06-09 06:32:00,56.0,56.0,30.14,SE,133,0.0,0.0,99,0.00,,,0.01,,2013-06-09 10:32:00,
2013-06-09 06:43:00,56.0,56.0,30.14,SE,133,0.0,0.0,99,0.00,,,0.01,,2013-06-09 10:43:00,
2013-06-09 06:52:00,56.0,56.0,30.15,SE,133,0.0,0.0,100,0.00,,,0.01,,2013-06-09 10:52:00,
2013-06-09 07:02:00,56.0,56.0,30.15,SE,133,0.0,0.0,100,0.00,,,0.01,,2013-06-09 11:02:00,
2013-06-09 07:12:00,56.0,56.0,30.15,SE,133,0.0,0.0,100,0.00,,,0.01,,2013-06-09 11:12:00,
2013-06-09 07:22:00,57.0,57.0,30.16,SE,134,0.0,0.0,100,0.00,,,0.01,,2013-06-09 11:22:00,
2013-06-09 07:32:00,59.0,59.0,30.16,SE,134,0.0,0.0,100,0.00,,,0.01,,2013-06-09 11:32:00,
2013-06-09 07:42:00,59.0,59.0,30.16,SE,134,0.0,0.0,100,0.00,,,0.01,,2013-06-09 11:42:00,
2013-06-09 07:53:00,61.0,61.0,30.16,SE,134,0.0,0.0,100,0.00,,,0.01,,2013-06-09 11:53:00,
2013-06-09 08:02:00,62.0,62.0,30.16,SE,134,0.0,0.0,100,0.00,,,0.01,,2013-06-09 12:02:00,
2013-06-09 08:12:00,62.0,62.0,30.16,SE,134,0.0,0.0,100,0.00,,,0.01,,2013-06-09 12:12:00,
2013-06-09 08:22:00,62.0,62.0,30.16,SE,134,0.0,0.0,100,0.00,,,0.01,,2013-06-09 12:22:00,
2013-06-09 08:32:00,65.0,63.0,30.16,SE,134,0.0,1.0,94,0.00,,,0.01,,2013-06-09 12:32:00,
2013-06-09 08:42:00,65.0,63.0,30.16,SE,134,0.0,1.0,94,0.00,,,0.01,,2013-06-09 12:42:00,
2013-06-09 08:53:00,68.0,63.0,30.17,SE,134,0.0,1.0,85,0.00,,,0.01,,2013-06-09 12:53:00,
2013-06-09 09:02:00,71.0,65.0,30.18,SE,134,0.0,1.0,80,0.00,,,0.01,,2013-06-09 13:02:00,
2013-06-09 09:12:00,71.0,65.0,30.18,SE,134,0.0,1.0,80,0.00,,,0.01,,2013-06-09 13:12:00,
2013-06-09 09:22:00,71.0,62.0,30.18,SW,232,1.0,3.0,74,0.00,,,0.01,,2013-06-09 13:22:00,
2013-06-09 09:32:00,73.0,63.0,30.18,ENE,65,0.0,2.0,72,0.00,,,0.01,,2013-06-09 13:32:00,
2013-06-09 09:42:00,74.0,64.0,30.18,ENE,65,0.0,1.0,71,0.00,,,0.01,,2013-06-09 13:42:00,
2013-06-09 09:52:00,74.0,64.0,30.18,ENE,65,0.0,1.0,71,0.00,,,0.01,,2013-06-09 13:52:00,
2013-06-09 10:02:00,74.0,62.0,30.18,East,86,0.0,4.0,67,0.00,,,0.01,,2013-06-09 14:02:00,
2013-06-09 10:12:00,74.0,62.0,30.18,East,86,0.0,4.0,67,0.00,,,0.01,,2013-06-09 14:12:00,
2013-06-09 10:22:00,74.0,60.0,30.19,SW,232,1.0,3.0,62,0.00,,,0.01,,2013-06-09 14:22:00,
2013-06-09 10:32:00,75.0,62.0,30.18,SSW,211,0.0,1.0,65,0.00,,,0.01,,2013-06-09 14:32:00,
2013-06-09 10:42:00,77.0,62.0,30.18,SW,219,1.0,3.0,59,0.00,,,0.01,,2013-06-09 14:42:00,
2013-06-09 10:52:00,77.0,62.0,30.18,SW,219,1.0,3.0,59,0.00,,,0.01,,2013-06-09 14:52:00,
2013-06-09 11:02:00,78.0,63.0,30.18,SSW,211,0.0,2.0,60,0.00,,,0.01,,2013-06-09 15:02:00,
2013-06-09 11:12:00,78.0,63.0,30.18,SSW,211,0.0,2.0,60,0.00,,,0.01,,2013-06-09 15:12:00,
2013-06-09 11:22:00,78.0,63.0,30.18,SSW,211,0.0,2.0,60,0.00,,,0.01,,2013-06-09 15:22:00,
2013-06-09 11:33:00,78.0,62.0,30.18,WSW,253,0.0,2.0,58,0.00,,,0.01,,2013-06-09 15:33:00,
2013-06-09 11:43:00,78.0,62.0,30.18,WSW,253,0.0,2.0,58,0.00,,,0.01,,2013-06-09 15:43:00,
2013-06-09 11:53:00,77.0,60.0,30.18,SW,214,0.0,1.0,56,0.00,,,0.01,,2013-06-09 15:53:00,
2013-06-09 12:03:00,78.0,59.0,30.18,South,190,3.0,6.0,52,0.00,,,0.01,,2013-06-09 16:03:00,
2013-06-09 12:13:00,78.0,59.0,30.18,South,190,3.0,6.0,52,0.00,,,0.01,,2013-06-09 16:13:00,
2013-06-09 12:23:00,79.0,60.0,30.18,SW,217,4.0,6.0,52,0.00,,,0.01,,2013-06-09 16:23:00,
2013-06-09 12:33:00,78.0,60.0,30.17,SW,218,1.0,6.0,54,0.00,,,0.01,,2013-06-09 16:33:00,
2013-06-09 12:42:00,78.0,60.0,30.17,SW,218,1.0,6.0,54,0.00,,,0.01,,2013-06-09 16:42:00,
2013-06-09 12:53:00,80.0,60.0,30.17,SSW,192,2.0,5.0,50,0.00,,,0.01,,2013-06-09 16:53:00,
2013-06-09 13:03:00,79.0,58.0,30.17,WSW,239,3.0,7.0,49,0.00,,,0.01,,2013-06-09 17:03:00,
2013-06-09 13:12:00,79.0,58.0,30.17,WSW,239,3.0,7.0,49,0.00,,,0.01,,2013-06-09 17:12:00,
2013-06-09 13:22:00,79.0,58.0,30.17,WSW,239,3.0,7.0,49,0.00,,,0.01,,2013-06-09 17:22:00,
2013-06-09 13:32:00,81.0,59.0,30.16,West,263,1.0,4.0,47,0.00,,,0.01,,2013-06-09 17:32:00,
2013-06-09 13:42:00,81.0,59.0,30.16,West,263,1.0,4.0,47,0.00,,,0.01,,2013-06-09 17:42:00,
2013-06-09 13:52:00,81.0,61.0,30.15,SW,231,0.0,5.0,50,0.00,,,0.01,,2013-06-09 17:52:00,
2013-06-09 14:02:00,82.0,60.0,30.15,WSW,247,0.0,8.0,48,0.00,,,0.01,,2013-06-09 18:02:00,
2013-06-09 14:12:00,82.0,60.0,30.15,WSW,247,0.0,8.0,48,0.00,,,0.01,,2013-06-09 18:12:00,
2013-06-09 14:22:00,82.0,61.0,30.15,SW,225,0.0,6.0,50,0.00,,,0.01,,2013-06-09 18:22:00,
2013-06-09 14:32:00,82.0,62.0,30.14,SW,229,0.0,1.0,51,0.00,,,0.01,,2013-06-09 18:32:00,
2013-06-09 14:42:00,82.0,62.0,30.14,SW,229,0.0,1.0,51,0.00,,,0.01,,2013-06-09 18:42:00,
2013-06-09 14:52:00,82.0,63.0,30.14,West,271,0.0,2.0,52,0.00,,,0.01,,2013-06-09 18:52:00,
2013-06-09 15:02:00,82.0,65.0,30.14,West,259,1.0,2.0,56,0.00,,,0.01,,2013-06-09 19:02:00,
2013-06-09 15:12:00,82.0,65.0,30.14,West,259,1.0,2.0,56,0.00,,,0.01,,2013-06-09 19:12:00,
2013-06-09 15:22:00,82.0,63.0,30.14,SW,227,0.0,5.0,52,0.00,,,0.01,,2013-06-09 19:22:00,
2013-06-09 15:32:00,82.0,63.0,30.14,West,261,2.0,5.0,53,0.00,,,0.01,,2013-06-09 19:32:00,
2013-06-09 15:42:00,82.0,63.0,30.14,West,261,2.0,5.0,53,0.00,,,0.01,,2013-06-09 19:42:00,
2013-06-09 15:52:00,82.0,65.0,30.13,SSW,200,1.0,3.0,56,0.00,,,0.01,,2013-06-09 19:52:00,
2013-06-09 16:02:00,82.0,63.0,30.13,WSW,250,1.0,4.0,52,0.00,,,0.01,,2013-06-09 20:02:00,
2013-06-09 16:12:00,82.0,63.0,30.13,WSW,250,1.0,4.0,52,0.00,,,0.01,,2013-06-09 20:12:00,
2013-06-09 16:22:00,82.0,63.0,30.13,WSW,250,1.0,4.0,52,0.00,,,0.01,,2013-06-09 20:22:00,
2013-06-09 16:32:00,81.0,63.0,30.11,ENE,71,1.0,3.0,55,0.00,,,0.01,,2013-06-09 20:32:00,
2013-06-09 16:42:00,81.0,63.0,30.11,ENE,71,1.0,3.0,55,0.00,,,0.01,,2013-06-09 20:42:00,
2013-06-09 16:52:00,81.0,63.0,30.11,SW,236,1.0,7.0,55,0.00,,,0.01,,2013-06-09 20:52:00,
2013-06-09 17:03:00,80.0,62.0,30.11,NE,48,0.0,2.0,55,0.00,,,0.01,,2013-06-09 21:03:00,
2013-06-09 17:12:00,79.0,62.0,30.11,SSW,205,1.0,3.0,56,0.00,,,0.01,,2013-06-09 21:12:00,
2013-06-09 17:22:00,79.0,62.0,30.11,SSW,205,1.0,3.0,56,0.00,,,0.01,,2013-06-09 21:22:00,
2013-06-09 17:33:00,79.0,62.0,30.11,SSW,205,1.0,3.0,56,0.00,,,0.01,,2013-06-09 21:33:00,
2013-06-09 17:43:00,79.0,62.0,30.11,SSW,205,1.0,3.0,56,0.00,,,0.01,,2013-06-09 21:43:00,
2013-06-09 17:53:00,79.0,65.0,30.11,SW,227,0.0,1.0,63,0.00,,,0.01,,2013-06-09 21:53:00,
2013-06-09 18:02:00,79.0,65.0,30.11,SW,227,0.0,1.0,63,0.00,,,0.01,,2013-06-09 22:02:00,
2013-06-09 18:13:00,79.0,62.0,30.11,South,175,0.0,3.0,57,0.00,,,0.01,,2013-06-09 22:13:00,
2013-06-09 18:23:00,79.0,62.0,30.11,South,175,0.0,3.0,57,0.00,,,0.01,,2013-06-09 22:23:00,
2013-06-09 18:33:00,79.0,63.0,30.11,WSW,246,1.0,6.0,59,0.00,,,0.01,,2013-06-09 22:33:00,
2013-06-09 18:42:00,79.0,63.0,30.11,WSW,246,1.0,6.0,59,0.00,,,0.01,,2013-06-09 22:42:00,
2013-06-09 18:52:00,79.0,64.0,30.11,SW,234,0.0,3.0,61,0.00,,,0.01,,2013-06-09 22:52:00,
2013-06-09 19:02:00,79.0,63.0,30.12,WSW,249,1.0,5.0,59,0.00,,,0.01,,2013-06-09 23:02:00,
2013-06-09 19:12:00,78.0,66.0,30.12,West,259,0.0,3.0,67,0.00,,,0.01,,2013-06-09 23:12:00,
2013-06-09 19:22:00,78.0,66.0,30.12,West,259,0.0,3.0,67,0.00,,,0.01,,2013-06-09 23:22:00,
2013-06-09 19:32:00,77.0,66.0,30.12,West,259,0.0,0.0,70,0.00,,,0.00,,2013-06-09 23:32:00,
2013-06-09 19:43:00,77.0,66.0,30.12,West,259,0.0,0.0,70,0.00,,,0.00,,2013-06-09 23:43:00,
2013-06-09 19:52:00,75.0,65.0,30.12,West,259,0.0,0.0,71,0.00,,,0.00,,2013-06-09 23:52:00,
2013-06-09 20:02:00,74.0,65.0,30.13,West,259,0.0,0.0,73,0.00,,,0.00,,2013-06-10 00:02:00,
2013-06-09 20:13:00,74.0,65.0,30.13,West,259,0.0,0.0,73,0.00,,,0.00,,2013-06-10 00:13:00,
2013-06-09 20:22:00,73.0,64.0,30.13,West,259,0.0,0.0,73,0.00,,,0.00,,2013-06-10 00:22:00,
2013-06-09 20:32:00,73.0,64.0,30.13,West,259,0.0,0.0,73,0.00,,,0.00,,2013-06-10 00:32:00,
2013-06-09 20:42:00,73.0,64.0,30.13,West,259,0.0,0.0,73,0.00,,,0.00,,2013-06-10 00:42:00,
2013-06-09 20:52:00,72.0,65.0,30.13,West,259,0.0,0.0,79,0.00,,,0.00,,2013-06-10 00:52:00,
2013-06-09 21:02:00,71.0,66.0,30.14,West,259,0.0,0.0,83,0.00,,,0.00,,2013-06-10 01:02:00,
2013-06-09 21:12:00,71.0,66.0,30.14,West,259,0.0,0.0,83,0.00,,,0.00,,2013-06-10 01:12:00,
2013-06-09 21:22:00,70.0,66.0,30.14,West,259,0.0,0.0,86,0.00,,,0.00,,2013-06-10 01:22:00,
2013-06-09 21:32:00,69.0,65.0,30.15,West,259,0.0,0.0,86,0.00,,,0.00,,2013-06-10 01:32:00,
2013-06-09 21:43:00,69.0,65.0,30.15,West,259,0.0,0.0,86,0.00,,,0.00,,2013-06-10 01:43:00,
2013-06-09 21:52:00,69.0,65.0,30.15,West,259,0.0,0.0,86,0.00,,,0.00,,2013-06-10 01:52:00,
2013-06-09 22:02:00,68.0,65.0,30.15,West,259,0.0,0.0,89,0.00,,,0.00,,2013-06-10 02:02:00,
2013-06-09 22:12:00,68.0,65.0,30.15,West,259,0.0,0.0,89,0.00,,,0.00,,2013-06-10 02:12:00,
2013-06-09 22:22:00,68.0,65.0,30.15,West,259,0.0,0.0,89,0.00,,,0.00,,2013-06-10 02:22:00,
2013-06-09 22:32:00,68.0,65.0,30.15,West,259,0.0,0.0,90,0.00,,,0.00,,2013-06-10 02:32:00,
2013-06-09 22:42:00,68.0,65.0,30.15,West,259,0.0,0.0,90,0.00,,,0.00,,2013-06-10 02:42:00,
2013-06-09 22:52:00,67.0,64.0,30.15,West,259,0.0,0.0,91,0.00,,,0.00,,2013-06-10 02:52:00,
2013-06-09 23:02:00,67.0,64.0,30.15,West,259,0.0,0.0,91,0.00,,,0.00,,2013-06-10 03:02:00,
2013-06-09 23:22:00,67.0,64.0,30.14,West,259,0.0,0.0,91,0.00,,,0.00,,2013-06-10 03:22:00,
2013-06-09 23:33:00,67.0,64.0,30.14,West,259,0.0,0.0,91,0.00,,,0.00,,2013-06-10 03:33:00,
2013-06-09 23:53:00,67.0,65.0,30.14,West,259,0.0,0.0,92,0.00,,,0.00,,2013-06-10 03:53:00,